Time;durP1;ratioP1;P1;durP2;ratioP2;P2;SDS_P1;SDS_P2;PMS_P1;PMS_P2;Temp;Humidity;BMP_temperature;BMP_pressure;BME280_temperature;BME280_humidity;BME280_pressure;Samples;Min_cycle;Max_cycle;Signal;HPM_P1;HPM_P2
2022/05/15 00:01:28;;;;;;;17.23;6.32;;;10.20;99.90;;;;;;5045010;28;20051;-86
2022/05/15 00:03:54;;;;;;;19.17;6.88;;;10.20;99.90;;;;;;5024344;28;20047;-86
2022/05/15 00:06:20;;;;;;;19.45;8.30;;;10.20;99.90;;;;;;5064925;28;20037;-86
2022/05/15 00:08:46;;;;;;;16.38;6.82;;;10.20;99.90;;;;;;5043060;28;20032;-86
2022/05/15 00:11:17;;;;;;;18.25;6.38;;;10.20;99.90;;;;;;5036600;28;20067;-86
2022/05/15 00:13:43;;;;;;;16.80;7.53;;;10.90;99.90;;;;;;5047043;28;20080;-86
2022/05/15 00:16:09;;;;;;;16.35;6.82;;;10.20;99.90;;;;;;5043426;28;20037;-86
2022/05/15 00:18:38;;;;;;;17.50;7.28;;;10.20;99.90;;;;;;5045579;28;20045;-86
2022/05/15 00:21:04;;;;;;;19.65;7.85;;;10.10;99.90;;;;;;5059051;28;20115;-86
2022/05/15 00:23:30;;;;;;;18.10;7.47;;;10.10;99.90;;;;;;5046634;28;20091;-86
2022/05/15 00:25:55;;;;;;;20.20;7.28;;;10.10;99.90;;;;;;5051645;28;20028;-86
2022/05/15 00:28:21;;;;;;;20.40;8.40;;;10.00;99.90;;;;;;5047113;28;20036;-86
2022/05/15 00:30:47;;;;;;;20.50;7.80;;;10.40;99.90;;;;;;5028043;28;20050;-86
2022/05/15 00:33:14;;;;;;;19.35;8.68;;;10.00;99.90;;;;;;5038382;28;20090;-86
2022/05/15 00:35:40;;;;;;;22.58;9.02;;;10.00;99.90;;;;;;5030403;28;20574;-86
2022/05/15 00:38:07;;;;;;;21.20;9.30;;;10.00;99.90;;;;;;5044891;28;20123;-86
2022/05/15 00:40:34;;;;;;;23.02;9.05;;;9.90;99.90;;;;;;5055146;28;20053;-86
2022/05/15 00:43:01;;;;;;;24.13;9.70;;;9.90;99.90;;;;;;5025066;28;20035;-86
2022/05/15 00:45:26;;;;;;;20.98;9.35;;;9.90;99.90;;;;;;5045177;28;20491;-86
2022/05/15 00:47:52;;;;;;;23.27;9.88;;;9.90;99.90;;;;;;5029697;28;20025;-86
2022/05/15 00:50:29;;;;;;;25.88;10.23;;;9.90;99.90;;;;;;5024582;28;20155;-86
2022/05/15 00:53:02;;;;;;;24.30;9.20;;;9.80;99.90;;;;;;5045612;28;20044;-86
2022/05/15 00:55:35;;;;;;;22.60;9.23;;;9.90;99.90;;;;;;5065798;28;20055;-86
2022/05/15 00:58:06;;;;;;;26.27;9.18;;;9.80;99.90;;;;;;5037201;28;20044;-87
2022/05/15 01:00:33;;;;;;;21.33;8.63;;;9.80;99.90;;;;;;5047799;28;20452;-86
2022/05/15 01:03:05;;;;;;;22.25;9.05;;;9.80;99.90;;;;;;5043591;28;20102;-86
2022/05/15 01:05:42;;;;;;;23.10;8.60;;;9.70;99.90;;;;;;5043808;28;20040;-86
2022/05/15 01:08:09;;;;;;;18.75;8.05;;;9.80;99.90;;;;;;5050850;28;20155;-86
2022/05/15 01:10:37;;;;;;;19.05;8.23;;;9.80;99.90;;;;;;5053569;28;20532;-86
2022/05/15 01:13:04;;;;;;;20.75;8.38;;;9.70;99.90;;;;;;5051824;28;20036;-86
2022/05/15 01:15:30;;;;;;;18.42;7.97;;;9.60;99.90;;;;;;5067195;28;20508;-85
2022/05/15 01:17:56;;;;;;;18.90;7.95;;;9.60;99.90;;;;;;5015193;28;20033;-86
2022/05/15 01:20:26;;;;;;;17.23;7.20;;;9.60;99.90;;;;;;5045567;28;20043;-86
2022/05/15 01:22:52;;;;;;;19.77;7.72;;;9.60;99.90;;;;;;5049896;28;20101;-86
2022/05/15 01:25:24;;;;;;;22.98;8.43;;;10.30;99.90;;;;;;5048747;28;20041;-86
2022/05/15 01:28:04;;;;;;;20.35;7.10;;;9.60;99.90;;;;;;5046403;28;20036;-85
2022/05/15 01:30:30;;;;;;;18.73;6.82;;;9.50;99.90;;;;;;5064349;28;20041;-86
2022/05/15 01:32:56;;;;;;;15.55;6.15;;;9.50;99.90;;;;;;5053241;28;20124;-86
2022/05/15 01:35:22;;;;;;;18.95;6.50;;;10.10;99.90;;;;;;5033117;28;20125;-85
2022/05/15 01:37:47;;;;;;;16.67;6.20;;;9.50;99.90;;;;;;5022476;28;20557;-86
2022/05/15 01:40:14;;;;;;;19.08;6.35;;;9.40;99.90;;;;;;5033083;28;20122;-83
2022/05/15 01:42:40;;;;;;;14.98;5.45;;;9.40;99.90;;;;;;5045131;28;20089;-86
2022/05/15 01:45:06;;;;;;;15.63;5.63;;;9.40;99.90;;;;;;5031433;28;20033;-86
2022/05/15 01:47:32;;;;;;;16.85;5.20;;;9.30;99.90;;;;;;5055321;28;20041;-86
2022/05/15 01:49:58;;;;;;;16.08;5.43;;;9.30;99.90;;;;;;5065430;28;20401;-86
2022/05/15 01:52:24;;;;;;;15.02;4.80;;;9.60;99.90;;;;;;5022326;28;20028;-86
2022/05/15 01:54:50;;;;;;;17.63;5.40;;;9.20;99.90;;;;;;5028637;28;20036;-86
2022/05/15 01:57:15;;;;;;;13.20;5.03;;;9.20;99.90;;;;;;5046265;28;20068;-86
2022/05/15 01:59:41;;;;;;;17.08;5.18;;;9.20;99.90;;;;;;5024675;28;20118;-86
2022/05/15 02:02:07;;;;;;;16.85;5.18;;;9.20;99.90;;;;;;5034121;28;20088;-86
2022/05/15 02:04:34;;;;;;;15.65;4.95;;;9.20;99.90;;;;;;5049354;28;20083;-86
2022/05/15 02:07:00;;;;;;;15.15;5.63;;;9.20;99.90;;;;;;5039642;28;20358;-86
2022/05/15 02:09:26;;;;;;;16.27;6.10;;;9.10;99.90;;;;;;5040021;28;20199;-86
2022/05/15 02:11:52;;;;;;;14.38;5.47;;;10.30;99.90;;;;;;5047752;28;20086;-86
2022/05/15 02:14:18;;;;;;;16.08;5.80;;;9.10;99.90;;;;;;5024335;28;20050;-86
2022/05/15 02:16:43;;;;;;;16.52;5.07;;;9.40;99.90;;;;;;5045768;28;20119;-86
2022/05/15 02:19:09;;;;;;;13.35;4.57;;;9.00;99.90;;;;;;5029580;28;20071;-86
2022/05/15 02:21:35;;;;;;;16.23;4.53;;;9.00;99.90;;;;;;5045456;28;20062;-86
2022/05/15 02:24:01;;;;;;;16.13;5.03;;;9.00;99.90;;;;;;5026368;28;20079;-85
2022/05/15 02:26:26;;;;;;;14.98;5.20;;;9.00;99.90;;;;;;5026628;28;20029;-86
2022/05/15 02:28:52;;;;;;;14.20;5.25;;;9.00;99.90;;;;;;5044981;28;20119;-87
2022/05/15 02:31:18;;;;;;;16.73;5.03;;;9.00;99.90;;;;;;5047016;28;20379;-86
2022/05/15 02:33:44;;;;;;;17.40;5.50;;;8.90;99.90;;;;;;5049472;28;20124;-86
2022/05/15 02:36:10;;;;;;;14.00;5.72;;;8.90;99.90;;;;;;5049124;28;20041;-86
2022/05/15 02:38:37;;;;;;;14.32;4.88;;;8.90;99.90;;;;;;5048997;28;20093;-86
2022/05/15 02:41:03;;;;;;;17.05;5.28;;;8.90;99.90;;;;;;5047702;28;20070;-86
2022/05/15 02:43:29;;;;;;;19.25;5.38;;;8.80;99.90;;;;;;5052649;28;20044;-86
2022/05/15 02:45:55;;;;;;;14.45;5.20;;;8.80;99.90;;;;;;5048342;28;20036;-86
2022/05/15 02:51:06;;;;;;;14.13;4.95;;;8.80;99.90;;;;;;5058682;28;20087;-86
2022/05/15 02:53:38;;;;;;;16.77;5.40;;;10.20;99.90;;;;;;5058224;28;20040;-86
2022/05/15 02:56:07;;;;;;;14.70;5.20;;;8.70;99.90;;;;;;5065305;28;20556;-86
2022/05/15 02:58:34;;;;;;;16.45;4.97;;;8.70;99.90;;;;;;5062715;28;20062;-86
2022/05/15 03:01:00;;;;;;;17.30;5.70;;;8.70;99.90;;;;;;5026577;28;20277;-86
2022/05/15 03:03:27;;;;;;;16.77;6.03;;;8.70;99.90;;;;;;5051335;28;20234;-86
2022/05/15 03:05:53;;;;;;;17.20;5.60;;;8.70;99.90;;;;;;5046408;28;20080;-86
2022/05/15 03:08:20;;;;;;;24.40;6.15;;;8.70;99.90;;;;;;5055746;28;20083;-86
2022/05/15 03:10:45;;;;;;;20.48;5.57;;;8.70;99.90;;;;;;5052217;28;20044;-86
2022/05/15 03:13:11;;;;;;;16.10;5.63;;;8.70;99.90;;;;;;5057596;28;20394;-86
2022/05/15 03:15:37;;;;;;;18.95;6.35;;;9.10;99.90;;;;;;5046824;28;20091;-86
2022/05/15 03:18:03;;;;;;;21.00;6.35;;;8.70;99.90;;;;;;5041076;28;20566;-86
2022/05/15 03:20:29;;;;;;;16.75;6.18;;;8.70;99.90;;;;;;5023175;28;20509;-86
2022/05/15 03:22:56;;;;;;;19.17;6.30;;;9.10;99.90;;;;;;5050329;28;20043;-86
2022/05/15 03:25:22;;;;;;;19.00;5.85;;;8.70;99.90;;;;;;5050701;28;20466;-86
2022/05/15 03:27:48;;;;;;;16.67;5.43;;;8.70;99.90;;;;;;5036364;28;20055;-86
2022/05/15 03:30:14;;;;;;;19.85;6.25;;;8.70;99.90;;;;;;5044754;28;20489;-86
2022/05/15 03:32:40;;;;;;;17.65;6.38;;;8.70;99.90;;;;;;5047913;28;20037;-86
2022/05/15 03:35:07;;;;;;;16.75;5.65;;;8.60;99.90;;;;;;5029205;28;20048;-86
2022/05/15 03:37:33;;;;;;;14.93;5.20;;;8.60;99.90;;;;;;5047601;28;20044;-87
2022/05/15 03:39:59;;;;;;;14.88;5.45;;;8.60;99.90;;;;;;5048493;28;20132;-87
2022/05/15 03:42:26;;;;;;;16.30;5.72;;;8.60;99.90;;;;;;5046857;28;20716;-86
2022/05/15 03:44:52;;;;;;;18.40;5.20;;;8.90;99.90;;;;;;5026774;28;20482;-86
2022/05/15 03:47:19;;;;;;;17.92;6.07;;;9.70;99.90;;;;;;5058291;28;20040;-86
2022/05/15 03:49:45;;;;;;;15.15;5.28;;;8.60;99.90;;;;;;5047966;28;20033;-86
2022/05/15 03:52:11;;;;;;;16.05;4.95;;;8.50;99.90;;;;;;5054668;28;20485;-86
2022/05/15 03:54:37;;;;;;;16.85;5.55;;;8.50;99.90;;;;;;5028657;28;20048;-87
2022/05/15 03:57:03;;;;;;;14.40;5.03;;;8.60;99.90;;;;;;5015935;28;20045;-86
2022/05/15 03:59:32;;;;;;;16.90;5.80;;;8.60;99.90;;;;;;5005981;28;20037;-86
2022/05/15 04:02:03;;;;;;;15.65;5.00;;;8.60;99.90;;;;;;5043888;28;20091;-86
2022/05/15 04:04:29;;;;;;;18.88;5.10;;;8.60;99.90;;;;;;5054410;28;20471;-86
2022/05/15 04:06:56;;;;;;;17.50;5.35;;;9.00;99.90;;;;;;5019840;28;20509;-86
2022/05/15 04:09:22;;;;;;;16.40;5.20;;;8.70;99.90;;;;;;5042963;28;20043;-86
2022/05/15 04:11:48;;;;;;;16.08;4.90;;;8.60;99.90;;;;;;5045977;28;20551;-86
2022/05/15 04:14:14;;;;;;;15.98;5.72;;;8.70;99.90;;;;;;5029663;28;20045;-86
2022/05/15 04:16:40;;;;;;;18.85;5.22;;;8.70;99.90;;;;;;5016654;28;20048;-86
2022/05/15 04:19:06;;;;;;;13.27;5.13;;;8.70;99.90;;;;;;5024814;28;20044;-86
2022/05/15 04:21:36;;;;;;;18.08;5.07;;;8.70;99.90;;;;;;5035082;28;20040;-86
2022/05/15 04:24:04;;;;;;;16.52;4.70;;;8.70;99.90;;;;;;5029695;28;20413;-86
2022/05/15 04:26:30;;;;;;;13.88;5.00;;;8.80;99.90;;;;;;5043211;28;20036;-86
2022/05/15 04:28:55;;;;;;;16.35;4.57;;;8.80;99.90;;;;;;5035056;28;20072;-86
2022/05/15 04:31:21;;;;;;;16.42;5.03;;;8.90;99.90;;;;;;5026641;28;20122;-86
2022/05/15 04:33:47;;;;;;;20.77;5.30;;;9.00;99.90;;;;;;5047263;28;20071;-86
2022/05/15 04:36:12;;;;;;;15.68;4.60;;;9.10;99.90;;;;;;5037175;28;20493;-87
2022/05/15 04:38:38;;;;;;;15.52;5.20;;;9.00;99.90;;;;;;5033556;28;20078;-86
2022/05/15 04:41:04;;;;;;;18.23;5.30;;;9.10;99.90;;;;;;5041005;28;20508;-86
2022/05/15 04:43:29;;;;;;;18.85;5.50;;;9.20;99.90;;;;;;5040992;28;20143;-86
2022/05/15 04:45:55;;;;;;;26.55;6.60;;;9.20;99.90;;;;;;5027838;28;20868;-86
2022/05/15 04:48:21;;;;;;;20.10;5.95;;;9.60;99.90;;;;;;5041865;28;20048;-86
2022/05/15 04:50:47;;;;;;;18.52;5.97;;;9.40;99.90;;;;;;5027206;28;20044;-86
2022/05/15 04:53:12;;;;;;;22.15;6.13;;;9.40;99.90;;;;;;5038649;28;20040;-86
2022/05/15 04:55:38;;;;;;;20.98;5.63;;;9.50;99.90;;;;;;5040505;28;20111;-85
2022/05/15 04:58:04;;;;;;;19.38;6.07;;;9.50;99.90;;;;;;5043459;28;20040;-86
2022/05/15 05:00:29;;;;;;;22.65;5.88;;;9.60;99.90;;;;;;5003196;28;20037;-85
2022/05/15 05:02:55;;;;;;;21.92;6.20;;;9.70;99.90;;;;;;5046275;28;20269;-86
2022/05/15 05:05:21;;;;;;;18.40;6.00;;;9.70;99.90;;;;;;5026905;28;20041;-86
2022/05/15 05:07:47;;;;;;;20.83;6.40;;;9.80;99.90;;;;;;5045620;28;20060;-86
2022/05/15 05:10:14;;;;;;;18.27;5.78;;;9.90;99.90;;;;;;5013117;28;20402;-86
2022/05/15 05:12:40;;;;;;;20.77;6.07;;;10.00;99.90;;;;;;5051184;28;20045;-86
2022/05/15 05:15:07;;;;;;;21.75;6.55;;;10.50;99.90;;;;;;5030802;28;20041;-86
2022/05/15 05:17:33;;;;;;;20.00;6.28;;;10.10;99.90;;;;;;5039306;28;20036;-85
2022/05/15 05:19:59;;;;;;;18.67;6.60;;;10.20;99.90;;;;;;5039643;28;20037;-86
2022/05/15 05:22:25;;;;;;;19.77;6.47;;;10.30;99.90;;;;;;5034981;28;20045;-86
2022/05/15 05:24:50;;;;;;;22.98;6.88;;;10.40;99.90;;;;;;5035918;28;20033;-85
2022/05/15 05:27:16;;;;;;;25.77;6.78;;;10.50;99.90;;;;;;5025229;28;20037;-85
2022/05/15 05:29:42;;;;;;;24.05;6.82;;;10.60;99.90;;;;;;5016295;28;20043;-86
2022/05/15 05:32:08;;;;;;;32.35;7.75;;;10.70;99.90;;;;;;5025369;28;20482;-86
2022/05/15 05:34:35;;;;;;;21.88;7.70;;;10.80;99.90;;;;;;5032038;28;20044;-85
2022/05/15 05:37:01;;;;;;;24.85;7.35;;;11.00;99.90;;;;;;5038716;28;20406;-86
2022/05/15 05:39:29;;;;;;;22.58;7.05;;;11.10;99.90;;;;;;5044988;28;20055;-86
2022/05/15 05:41:56;;;;;;;22.05;6.97;;;11.20;99.90;;;;;;5024083;28;20705;-86
2022/05/15 05:44:22;;;;;;;23.13;6.68;;;11.40;99.90;;;;;;5003005;28;20041;-86
2022/05/15 05:46:48;;;;;;;27.58;6.75;;;11.50;99.90;;;;;;5020866;28;20126;-85
2022/05/15 05:49:14;;;;;;;18.23;5.43;;;11.60;99.90;;;;;;5014211;28;20076;-85
2022/05/15 05:51:39;;;;;;;19.88;6.05;;;11.30;99.90;;;;;;5016406;28;20037;-86
2022/05/15 05:54:05;;;;;;;26.38;6.28;;;11.80;99.90;;;;;;5029173;28;20201;-85
2022/05/15 05:56:31;;;;;;;20.25;6.53;;;12.00;99.90;;;;;;5033504;28;20041;-86
2022/05/15 05:58:56;;;;;;;21.70;6.38;;;12.10;99.90;;;;;;5031868;28;20056;-86
2022/05/15 06:01:22;;;;;;;26.67;7.35;;;12.20;99.90;;;;;;5030615;28;20039;-86
2022/05/15 06:06:32;;;;;;;23.00;6.13;;;12.40;99.90;;;;;;5049766;28;20045;-86
2022/05/15 06:08:58;;;;;;;24.23;6.35;;;12.60;99.90;;;;;;5042399;28;20029;-87
2022/05/15 06:11:23;;;;;;;20.40;5.50;;;12.60;99.90;;;;;;5025923;28;20044;-86
2022/05/15 06:13:49;;;;;;;23.83;6.13;;;12.80;99.90;;;;;;5009239;28;20033;-86
2022/05/15 06:16:15;;;;;;;19.25;5.78;;;12.90;99.90;;;;;;5044440;28;20075;-85
2022/05/15 06:18:41;;;;;;;18.73;5.65;;;13.00;99.90;;;;;;5071892;28;20093;-85
2022/05/15 06:21:07;;;;;;;19.60;5.28;;;13.30;99.90;;;;;;5049884;28;20187;-86
2022/05/15 06:23:33;;;;;;;21.48;5.80;;;13.20;99.90;;;;;;5065704;28;20536;-86
2022/05/15 06:25:58;;;;;;;21.85;5.60;;;13.30;99.90;;;;;;5065691;28;20119;-86
2022/05/15 06:28:24;;;;;;;21.05;6.10;;;13.40;99.90;;;;;;5034640;28;20284;-86
2022/05/15 06:30:50;;;;;;;18.27;5.88;;;13.50;99.90;;;;;;5029480;28;20021;-85
2022/05/15 06:33:16;;;;;;;22.90;6.03;;;13.60;99.90;;;;;;5035003;28;20403;-85
2022/05/15 06:35:42;;;;;;;19.48;5.90;;;13.70;99.90;;;;;;5053651;28;20037;-86
2022/05/15 06:38:08;;;;;;;18.52;5.55;;;13.70;99.90;;;;;;5053460;28;20508;-86
2022/05/15 06:40:34;;;;;;;22.67;5.43;;;13.90;99.90;;;;;;5065474;28;20059;-87
2022/05/15 06:43:00;;;;;;;18.10;5.45;;;13.90;99.90;;;;;;5045458;28;20044;-87
2022/05/15 06:45:27;;;;;;;22.58;5.43;;;14.00;99.90;;;;;;5019629;28;20122;-86
2022/05/15 06:47:53;;;;;;;21.05;5.68;;;14.30;99.90;;;;;;5059994;28;20097;-85
2022/05/15 06:50:19;;;;;;;23.23;5.35;;;14.20;99.90;;;;;;5067804;28;20037;-87
2022/05/15 06:52:45;;;;;;;22.13;5.60;;;14.30;99.90;;;;;;5043489;28;20033;-87
2022/05/15 06:55:20;;;;;;;21.55;5.78;;;14.40;99.90;;;;;;5034724;28;20486;-86
2022/05/15 06:57:47;;;;;;;19.83;5.63;;;14.60;99.90;;;;;;5051486;28;20067;-87
2022/05/15 07:00:25;;;;;;;20.80;6.15;;;14.60;99.90;;;;;;5034006;28;20037;-87
2022/05/15 07:02:51;;;;;;;20.70;4.70;;;14.80;99.90;;;;;;5045760;28;20565;-87
2022/05/15 07:05:23;;;;;;;20.70;5.38;;;14.90;99.90;;;;;;5070738;28;20048;-86
2022/05/15 07:07:51;;;;;;;18.27;4.93;;;15.00;99.90;;;;;;5053292;28;20346;-86
2022/05/15 07:10:18;;;;;;;21.15;5.22;;;15.00;99.90;;;;;;5032488;28;20040;-87
2022/05/15 07:12:44;;;;;;;23.55;5.32;;;15.10;99.90;;;;;;5044319;28;20040;-86
2022/05/15 07:15:11;;;;;;;21.65;5.22;;;15.20;99.90;;;;;;5040686;28;20115;-86
2022/05/15 07:17:37;;;;;;;20.80;5.32;;;15.40;99.90;;;;;;5032235;28;20049;-87
2022/05/15 07:20:05;;;;;;;18.60;5.15;;;15.50;99.90;;;;;;5062365;28;20032;-87
2022/05/15 07:22:31;;;;;;;22.60;5.53;;;15.60;99.90;;;;;;5033850;28;20118;-87
2022/05/15 07:24:57;;;;;;;16.15;4.70;;;15.60;99.90;;;;;;5047698;28;20040;-86
2022/05/15 07:27:23;;;;;;;21.50;5.07;;;15.80;99.90;;;;;;5035681;28;20041;-89
2022/05/15 07:29:49;;;;;;;20.27;5.10;;;15.90;99.90;;;;;;5034632;28;20047;-90
2022/05/15 07:32:15;;;;;;;17.73;4.43;;;16.00;99.90;;;;;;5042259;28;20405;-85
2022/05/15 07:34:41;;;;;;;19.00;5.65;;;16.10;99.90;;;;;;5051864;28;20123;-86
2022/05/15 07:37:08;;;;;;;15.60;4.45;;;16.20;99.90;;;;;;5035845;28;20123;-85
2022/05/15 07:39:33;;;;;;;21.63;4.55;;;16.20;99.90;;;;;;5048053;28;20118;-86
2022/05/15 07:41:59;;;;;;;17.83;4.85;;;16.20;99.90;;;;;;5009451;28;20040;-86
2022/05/15 07:44:25;;;;;;;21.85;4.90;;;16.30;99.90;;;;;;5032440;28;20099;-84
2022/05/15 07:46:51;;;;;;;21.33;5.20;;;16.50;99.90;;;;;;5029053;28;20045;-85
2022/05/15 07:49:17;;;;;;;15.88;3.97;;;16.60;99.90;;;;;;5031862;28;20060;-88
2022/05/15 07:51:45;;;;;;;18.65;4.35;;;16.70;99.90;;;;;;5043996;28;20056;-85
2022/05/15 07:54:16;;;;;;;16.63;4.10;;;16.80;99.90;;;;;;5030513;28;20036;-85
2022/05/15 07:56:42;;;;;;;16.65;4.43;;;17.00;99.90;;;;;;5066252;28;20041;-86
2022/05/15 07:59:08;;;;;;;17.35;4.05;;;17.10;99.90;;;;;;5025528;28;20098;-85
2022/05/15 08:01:34;;;;;;;19.27;4.45;;;17.10;99.90;;;;;;5045468;28;20097;-86
2022/05/15 08:04:00;;;;;;;15.02;4.10;;;17.30;99.90;;;;;;5032307;28;20079;-85
2022/05/15 08:09:10;;;;;;;13.40;3.97;;;17.50;99.90;;;;;;5051387;28;20052;-85
2022/05/15 08:11:36;;;;;;;18.02;4.40;;;17.60;99.90;;;;;;5032909;28;20033;-86
2022/05/15 08:14:04;;;;;;;14.68;3.67;;;17.60;99.90;;;;;;5043300;28;20124;-86
2022/05/15 08:16:31;;;;;;;18.13;3.92;;;17.70;99.90;;;;;;5046494;28;20035;-85
2022/05/15 08:24:27;;;;;;;16.00;4.18;;;17.80;99.90;;;;;;5055666;28;20048;-86
2022/05/15 08:26:52;;;;;;;14.38;4.28;;;17.80;99.90;;;;;;5051429;28;20485;-86
2022/05/15 08:29:19;;;;;;;19.40;4.18;;;17.90;99.90;;;;;;5030858;28;20048;-85
2022/05/15 08:31:45;;;;;;;18.38;4.50;;;18.10;99.90;;;;;;5043446;28;20033;-86
2022/05/15 08:34:12;;;;;;;14.07;3.92;;;18.10;99.90;;;;;;5045971;28;20036;-86
2022/05/15 08:36:41;;;;;;;15.95;4.20;;;18.10;99.90;;;;;;5041463;28;20044;-86
2022/05/15 08:39:08;;;;;;;14.25;3.35;;;18.10;99.90;;;;;;5035858;28;20036;-86
2022/05/15 08:41:56;;;;;;;15.68;3.78;;;18.20;99.90;;;;;;5062299;28;20119;-85
2022/05/15 08:44:29;;;;;;;13.93;3.63;;;18.30;99.90;;;;;;5037716;28;20095;-85
2022/05/15 08:47:01;;;;;;;16.02;3.70;;;18.40;99.90;;;;;;5048307;28;20045;-85
2022/05/15 08:49:33;;;;;;;12.18;3.70;;;18.40;99.90;;;;;;5050098;28;20068;-85
2022/05/15 08:52:26;;;;;;;17.60;4.13;;;18.40;99.90;;;;;;5051349;28;20066;-85
2022/05/15 08:54:56;;;;;;;16.30;3.83;;;18.60;99.90;;;;;;5042564;28;20041;-85
2022/05/15 08:57:45;;;;;;;15.88;4.63;;;18.70;99.90;;;;;;5064285;28;20378;-86
2022/05/15 09:00:14;;;;;;;14.07;3.65;;;18.70;99.90;;;;;;5050753;28;20131;-86
2022/05/15 09:02:42;;;;;;;13.05;3.55;;;18.80;99.90;;;;;;5045818;28;20497;-86
2022/05/15 09:05:10;;;;;;;13.52;3.60;;;18.90;99.90;;;;;;5048235;28;20037;-85
2022/05/15 09:07:48;;;;;;;14.75;3.65;;;18.80;99.90;;;;;;5066523;28;20045;-86
2022/05/15 09:10:43;;;;;;;11.98;3.22;;;19.00;99.90;;;;;;5048990;28;20251;-85
2022/05/15 09:13:20;;;;;;;14.55;3.65;;;19.10;99.90;;;;;;5056834;28;20048;-85
2022/05/15 09:15:57;;;;;;;15.75;3.83;;;19.20;99.90;;;;;;5049230;28;20039;-84
2022/05/15 09:18:24;;;;;;;17.13;4.13;;;19.20;99.90;;;;;;5061338;28;20036;-85
2022/05/15 09:20:52;;;;;;;16.00;4.07;;;19.20;99.90;;;;;;5044150;28;20107;-84
2022/05/15 09:23:29;;;;;;;14.85;3.80;;;19.20;99.90;;;;;;5046937;28;20048;-86
2022/05/15 09:26:17;;;;;;;14.95;4.43;;;19.00;99.90;;;;;;5045743;28;20125;-84
2022/05/15 09:28:44;;;;;;;15.85;3.42;;;19.00;99.90;;;;;;5052077;28;20036;-84
2022/05/15 09:31:22;;;;;;;15.90;4.03;;;18.90;99.90;;;;;;5063796;28;20485;-85
2022/05/15 09:34:00;;;;;;;15.55;4.00;;;19.00;99.90;;;;;;5067273;28;20045;-85
2022/05/15 09:36:35;;;;;;;18.08;4.30;;;19.00;99.90;;;;;;5054437;28;20048;-86
2022/05/15 09:39:18;;;;;;;13.68;3.75;;;19.00;99.90;;;;;;5046867;28;20060;-85
2022/05/15 09:44:41;;;;;;;15.65;3.53;;;19.10;99.90;;;;;;5062872;28;20124;-87
2022/05/15 09:47:10;;;;;;;19.13;3.63;;;19.20;99.90;;;;;;5041397;28;20088;-86
2022/05/15 09:49:35;;;;;;;13.88;3.17;;;19.20;99.90;;;;;;5042425;28;20103;-85
2022/05/15 09:52:10;;;;;;;13.15;3.25;;;19.30;99.90;;;;;;5050749;28;20497;-85
2022/05/15 09:54:38;;;;;;;12.82;3.60;;;19.40;99.90;;;;;;5062662;28;20044;-86
2022/05/15 09:57:13;;;;;;;14.25;3.83;;;19.40;99.90;;;;;;5047549;28;20097;-87
2022/05/15 09:59:39;;;;;;;14.35;3.58;;;19.50;99.90;;;;;;5054776;28;20115;-86
2022/05/15 10:02:05;;;;;;;12.10;3.40;;;19.50;99.90;;;;;;5054707;28;20044;-87
2022/05/15 10:04:37;;;;;;;15.80;3.83;;;19.50;99.90;;;;;;5055409;28;20540;-87
2022/05/15 10:07:07;;;;;;;14.75;3.40;;;19.60;99.90;;;;;;5038431;28;20036;-86
2022/05/15 10:09:35;;;;;;;14.25;3.60;;;19.20;99.90;;;;;;5047800;28;20036;-87
2022/05/15 10:12:05;;;;;;;13.25;3.50;;;19.80;99.90;;;;;;5044653;28;20497;-87
2022/05/15 10:14:37;;;;;;;16.05;3.55;;;19.80;99.90;;;;;;5064979;28;20040;-87
2022/05/15 10:17:03;;;;;;;13.00;3.73;;;19.90;99.90;;;;;;5048559;28;20074;-85
2022/05/15 10:20:10;;;;;;;12.18;3.42;;;19.80;99.90;;;;;;5029696;28;20285;-86
2022/05/15 10:23:06;;;;;;;13.60;3.50;;;19.80;99.90;;;;;;5053163;28;20061;-86
2022/05/15 10:25:49;;;;;;;14.32;3.22;;;20.00;99.90;;;;;;5050310;28;20041;-85
2022/05/15 10:28:52;;;;;;;11.95;3.47;;;20.20;99.90;;;;;;5049462;28;20033;-85
2022/05/15 10:31:31;;;;;;;13.75;3.05;;;20.30;99.90;;;;;;5055597;28;20075;-85
2022/05/15 10:34:00;;;;;;;14.57;3.55;;;20.40;99.90;;;;;;5056427;28;20514;-85
2022/05/15 10:36:47;;;;;;;12.68;3.67;;;20.40;99.90;;;;;;5059043;28;20044;-85
2022/05/15 10:39:41;;;;;;;13.95;3.50;;;20.30;99.90;;;;;;5056117;28;20106;-85
2022/05/15 10:42:13;;;;;;;13.70;3.45;;;20.40;99.90;;;;;;5054048;28;20405;-84
2022/05/15 10:45:06;;;;;;;15.32;3.60;;;20.40;99.90;;;;;;5051331;28;20036;-85
2022/05/15 10:47:41;;;;;;;15.10;3.33;;;20.50;99.90;;;;;;5041215;28;20060;-87
2022/05/15 10:50:39;;;;;;;14.05;3.33;;;20.50;99.90;;;;;;5052763;28;20047;-85
2022/05/15 11:00:05;;;;;;;16.55;3.60;;;20.50;99.90;;;;;;5050977;28;20077;-85
2022/05/15 11:02:54;;;;;;;11.73;2.95;;;20.50;99.90;;;;;;5045061;28;20481;-85
2022/05/15 11:05:31;;;;;;;11.38;3.30;;;20.60;99.90;;;;;;5050379;28;20041;-85
2022/05/15 11:08:18;;;;;;;13.43;3.45;;;20.60;99.90;;;;;;5052278;28;20176;-85
2022/05/15 11:10:50;;;;;;;13.88;3.30;;;20.70;99.90;;;;;;5050427;28;20040;-85
2022/05/15 11:13:34;;;;;;;11.87;3.10;;;20.80;99.90;;;;;;5050770;28;20211;-85
2022/05/15 11:16:15;;;;;;;13.75;3.53;;;20.90;99.90;;;;;;5044497;28;20294;-84
2022/05/15 11:19:09;;;;;;;12.32;3.30;;;20.90;99.90;;;;;;5046668;28;20033;-84
2022/05/15 11:21:40;;;;;;;9.90;2.95;;;20.90;99.90;;;;;;5050943;28;20166;-85
2022/05/15 11:24:33;;;;;;;14.15;3.05;;;20.90;99.90;;;;;;5053026;28;20135;-85
2022/05/15 11:27:15;;;;;;;14.93;3.45;;;21.00;99.90;;;;;;5044250;28;20705;-85
2022/05/15 11:29:46;;;;;;;13.03;3.10;;;21.10;99.90;;;;;;5041030;28;20094;-86
2022/05/15 11:33:01;;;;;;;11.35;3.30;;;21.10;99.90;;;;;;5053156;28;20032;-84
2022/05/15 11:35:34;;;;;;;14.15;3.45;;;21.10;99.90;;;;;;5037586;28;20124;-85
2022/05/15 11:37:59;;;;;;;;;;;21.10;99.90;;;;;;5065955;28;20154;-85
2022/05/15 11:40:30;;;;;;;11.90;3.47;;;21.00;98.80;;;;;;5042915;28;19921;-86
2022/05/15 11:42:57;;;;;;;11.25;2.97;;;21.10;99.90;;;;;;5044416;28;20504;-85
2022/05/15 11:45:30;;;;;;;13.35;3.08;;;21.10;99.90;;;;;;5044369;28;20124;-85
2022/05/15 11:48:11;;;;;;;12.45;2.90;;;21.10;99.90;;;;;;5044526;28;20043;-86
2022/05/15 11:50:58;;;;;;;10.48;2.75;;;21.00;99.90;;;;;;5053809;28;20036;-86
2022/05/15 11:53:29;;;;;;;11.82;2.88;;;21.20;99.40;;;;;;5048965;28;20393;-85
2022/05/15 11:55:55;;;;;;;15.02;3.10;;;21.30;99.90;;;;;;5048593;28;20040;-84
2022/05/15 11:58:26;;;;;;;11.40;2.97;;;21.50;99.80;;;;;;5038489;28;20067;-84
2022/05/15 12:01:03;;;;;;;11.82;2.78;;;21.60;99.10;;;;;;5052497;28;20508;-85
2022/05/15 12:03:44;;;;;;;11.55;2.90;;;21.80;97.80;;;;;;5044529;28;20512;-85
2022/05/15 12:06:34;;;;;;;11.57;3.22;;;21.90;97.10;;;;;;5048422;28;20194;-84
2022/05/15 12:09:20;;;;;;;11.30;2.83;;;21.90;95.70;;;;;;5028963;28;20036;-85
2022/05/15 12:11:51;;;;;;;13.23;3.22;;;21.90;94.80;;;;;;5068985;28;20071;-85
2022/05/15 12:14:26;;;;;;;12.32;3.15;;;21.70;96.10;;;;;;5068657;28;20037;-85
2022/05/15 12:17:00;;;;;;;10.50;2.70;;;21.60;93.80;;;;;;5052030;28;20048;-85
2022/05/15 12:19:35;;;;;;;11.73;2.88;;;21.60;94.80;;;;;;5067627;28;20467;-85
2022/05/15 12:22:08;;;;;;;12.30;2.50;;;21.60;94.60;;;;;;5046842;28;20047;-84
2022/05/15 12:24:37;;;;;;;11.00;2.83;;;21.70;95.20;;;;;;5040880;28;20059;-84
2022/05/15 12:27:26;;;;;;;11.77;2.90;;;21.60;95.20;;;;;;5051859;28;20047;-84
2022/05/15 12:30:15;;;;;;;11.45;3.00;;;21.70;95.00;;;;;;5053531;28;20036;-83
2022/05/15 12:33:01;;;;;;;10.65;3.13;;;21.80;95.50;;;;;;5039512;28;20036;-85
2022/05/15 12:35:33;;;;;;;11.90;3.15;;;;;;;;;;5065191;28;20051;-84
2022/05/15 12:38:07;;;;;;;12.25;3.05;;;21.70;95.20;;;;;;5051985;28;20494;-84
2022/05/15 12:40:40;;;;;;;11.20;2.85;;;21.60;94.60;;;;;;5034443;28;20063;-84
2022/05/15 12:43:26;;;;;;;10.85;2.80;;;21.60;95.50;;;;;;5051804;28;20075;-84
2022/05/15 12:45:52;;;;;;;11.85;3.00;;;21.60;95.20;;;;;;5051850;28;20387;-84
2022/05/15 12:48:19;;;;;;;13.02;3.15;;;21.60;95.80;;;;;;5048187;28;20044;-84
2022/05/15 12:50:51;;;;;;;11.25;3.10;;;21.80;95.60;;;;;;5055098;28;20040;-85
2022/05/15 12:53:34;;;;;;;9.43;2.72;;;21.80;94.80;;;;;;5062057;28;20120;-84
2022/05/15 12:56:17;;;;;;;11.90;2.83;;;21.90;94.90;;;;;;5068352;28;20044;-85
2022/05/15 12:58:43;;;;;;;;;;;21.90;95.00;;;;;;5051116;28;20167;-84
2022/05/15 13:01:13;;;;;;;11.02;3.10;;;21.90;94.50;;;;;;5045547;28;19917;-84
2022/05/15 13:03:44;;;;;;;11.20;2.97;;;21.80;94.60;;;;;;5055647;28;20040;-84
2022/05/15 13:06:10;;;;;;;10.57;2.90;;;21.70;94.70;;;;;;5055379;28;20048;-84
2022/05/15 13:08:51;;;;;;;9.80;2.72;;;21.70;95.60;;;;;;5069742;28;20041;-85
2022/05/15 13:11:26;;;;;;;10.88;2.88;;;21.70;95.70;;;;;;5062308;28;20132;-84
2022/05/15 13:13:55;;;;;;;11.88;2.95;;;21.60;95.60;;;;;;5057712;28;20044;-85
2022/05/15 13:16:24;;;;;;;11.18;2.80;;;21.60;95.80;;;;;;5055481;28;20041;-84
2022/05/15 13:18:53;;;;;;;12.93;3.10;;;21.60;96.20;;;;;;5075588;28;20643;-84